sensor_id;sensor_type;location;lat;lon;timestamp;pressure;altitude;pressure_sealevel;temperature;humidity
59289;BME280;45056;47.602;9.886;2022-07-23T00:01:46;93364.63;;;24.40;48.23
59289;BME280;45056;47.602;9.886;2022-07-23T00:04:14;93350.81;;;24.28;47.55
59289;BME280;45056;47.602;9.886;2022-07-23T00:06:43;93348.13;;;24.23;46.58
59289;BME280;45056;47.602;9.886;2022-07-23T00:09:11;93357.78;;;24.16;45.83
59289;BME280;45056;47.602;9.886;2022-07-23T00:11:39;93338.38;;;24.10;45.18
59289;BME280;45056;47.602;9.886;2022-07-23T00:14:07;93340.97;;;24.02;44.76
59289;BME280;45056;47.602;9.886;2022-07-23T00:16:35;93334.81;;;23.85;43.72
59289;BME280;45056;47.602;9.886;2022-07-23T00:19:03;93332.94;;;23.68;43.49
59289;BME280;45056;47.602;9.886;2022-07-23T00:21:31;93339.63;;;23.54;43.72
59289;BME280;45056;47.602;9.886;2022-07-23T00:24:01;93350.31;;;23.38;44.51
59289;BME280;45056;47.602;9.886;2022-07-23T00:26:29;93355.22;;;23.20;45.35
59289;BME280;45056;47.602;9.886;2022-07-23T00:28:57;93342.75;;;22.97;46.52
59289;BME280;45056;47.602;9.886;2022-07-23T00:31:25;93346.66;;;22.76;47.63
59289;BME280;45056;47.602;9.886;2022-07-23T00:33:53;93366.44;;;22.50;48.58
59289;BME280;45056;47.602;9.886;2022-07-23T00:36:23;93363.94;;;22.29;49.55
59289;BME280;45056;47.602;9.886;2022-07-23T00:38:51;93357.41;;;22.21;50.14
59289;BME280;45056;47.602;9.886;2022-07-23T00:41:21;93380.34;;;22.22;51.17
59289;BME280;45056;47.602;9.886;2022-07-23T00:43:49;93372.25;;;22.24;51.79
59289;BME280;45056;47.602;9.886;2022-07-23T00:46:19;93363.22;;;22.17;52.11
59289;BME280;45056;47.602;9.886;2022-07-23T00:48:47;93367.78;;;22.09;52.74
59289;BME280;45056;47.602;9.886;2022-07-23T00:51:16;93366.50;;;22.04;53.53
59289;BME280;45056;47.602;9.886;2022-07-23T00:53:45;93353.94;;;21.98;53.24
59289;BME280;45056;47.602;9.886;2022-07-23T00:56:14;93362.53;;;21.77;53.25
59289;BME280;45056;47.602;9.886;2022-07-23T00:58:44;93363.25;;;21.49;53.59
59289;BME280;45056;47.602;9.886;2022-07-23T01:01:12;93354.69;;;21.24;54.52
59289;BME280;45056;47.602;9.886;2022-07-23T01:03:40;93344.34;;;21.13;55.07
59289;BME280;45056;47.602;9.886;2022-07-23T01:06:08;93350.63;;;21.08;55.44
59289;BME280;45056;47.602;9.886;2022-07-23T01:08:37;93328.75;;;20.99;55.32
59289;BME280;45056;47.602;9.886;2022-07-23T01:11:05;93326.22;;;20.84;55.07
59289;BME280;45056;47.602;9.886;2022-07-23T01:13:33;93309.56;;;20.67;55.48
59289;BME280;45056;47.602;9.886;2022-07-23T01:16:03;93314.78;;;20.53;56.43
59289;BME280;45056;47.602;9.886;2022-07-23T01:18:32;93319.06;;;20.49;56.57
59289;BME280;45056;47.602;9.886;2022-07-23T01:21:00;93327.09;;;20.46;57.57
59289;BME280;45056;47.602;9.886;2022-07-23T01:23:29;93346.69;;;20.54;57.16
59289;BME280;45056;47.602;9.886;2022-07-23T01:25:57;93350.78;;;20.65;56.92
59289;BME280;45056;47.602;9.886;2022-07-23T01:28:25;93354.03;;;20.74;56.88
59289;BME280;45056;47.602;9.886;2022-07-23T01:30:53;93338.00;;;20.84;57.10
59289;BME280;45056;47.602;9.886;2022-07-23T01:33:21;93304.38;;;20.92;56.97
59289;BME280;45056;47.602;9.886;2022-07-23T01:35:49;93263.13;;;20.94;57.43
59289;BME280;45056;47.602;9.886;2022-07-23T01:38:17;93224.41;;;20.88;57.13
59289;BME280;45056;47.602;9.886;2022-07-23T01:40:47;93201.25;;;20.74;57.36
59289;BME280;45056;47.602;9.886;2022-07-23T01:43:15;93181.13;;;20.62;57.55
59289;BME280;45056;47.602;9.886;2022-07-23T01:45:43;93148.19;;;20.58;57.59
59289;BME280;45056;47.602;9.886;2022-07-23T01:48:11;93132.88;;;20.57;57.73
59289;BME280;45056;47.602;9.886;2022-07-23T01:50:39;93128.88;;;20.53;58.33
59289;BME280;45056;47.602;9.886;2022-07-23T01:53:07;93131.63;;;20.47;58.89
59289;BME280;45056;47.602;9.886;2022-07-23T01:55:35;93122.84;;;20.43;59.45
59289;BME280;45056;47.602;9.886;2022-07-23T01:58:04;93105.75;;;20.39;59.52
59289;BME280;45056;47.602;9.886;2022-07-23T02:00:33;93096.47;;;20.30;59.61
59289;BME280;45056;47.602;9.886;2022-07-23T02:03:01;93101.22;;;20.24;59.62
59289;BME280;45056;47.602;9.886;2022-07-23T02:05:30;93097.94;;;20.20;59.63
59289;BME280;45056;47.602;9.886;2022-07-23T02:07:59;93092.41;;;20.20;60.28
59289;BME280;45056;47.602;9.886;2022-07-23T02:10:28;93086.13;;;20.25;59.46
59289;BME280;45056;47.602;9.886;2022-07-23T02:12:56;93100.72;;;20.31;59.21
59289;BME280;45056;47.602;9.886;2022-07-23T02:15:25;93101.47;;;20.43;58.85
59289;BME280;45056;47.602;9.886;2022-07-23T02:17:55;93107.25;;;20.57;58.58
59289;BME280;45056;47.602;9.886;2022-07-23T02:20:23;93101.47;;;20.72;58.56
59289;BME280;45056;47.602;9.886;2022-07-23T02:22:51;93108.50;;;20.84;57.82
59289;BME280;45056;47.602;9.886;2022-07-23T02:25:19;93092.41;;;20.94;57.29
59289;BME280;45056;47.602;9.886;2022-07-23T02:27:47;93068.00;;;20.98;56.97
59289;BME280;45056;47.602;9.886;2022-07-23T02:30:15;93054.97;;;20.99;56.89
59289;BME280;45056;47.602;9.886;2022-07-23T02:32:45;93058.97;;;20.98;57.06
59289;BME280;45056;47.602;9.886;2022-07-23T02:35:13;93061.22;;;20.99;56.81
59289;BME280;45056;47.602;9.886;2022-07-23T02:37:40;93067.00;;;21.07;56.76
59289;BME280;45056;47.602;9.886;2022-07-23T02:40:09;93077.03;;;21.16;56.75
59289;BME280;45056;47.602;9.886;2022-07-23T02:42:38;93087.06;;;21.25;56.29
59289;BME280;45056;47.602;9.886;2022-07-23T02:45:07;93090.56;;;21.31;56.54
59289;BME280;45056;47.602;9.886;2022-07-23T02:47:35;93089.28;;;21.38;56.56
59289;BME280;45056;47.602;9.886;2022-07-23T02:50:06;93096.06;;;21.42;56.53
59289;BME280;45056;47.602;9.886;2022-07-23T02:52:35;93098.56;;;21.46;56.88
59289;BME280;45056;47.602;9.886;2022-07-23T02:55:03;93102.56;;;21.51;57.30
59289;BME280;45056;47.602;9.886;2022-07-23T02:57:32;93108.34;;;21.53;57.06
59289;BME280;45056;47.602;9.886;2022-07-23T03:00:00;93111.38;;;21.55;57.34
59289;BME280;45056;47.602;9.886;2022-07-23T03:02:28;93112.34;;;21.57;57.24
59289;BME280;45056;47.602;9.886;2022-07-23T03:04:56;93119.91;;;21.57;57.81
59289;BME280;45056;47.602;9.886;2022-07-23T03:07:26;93110.84;;;21.56;58.02
59289;BME280;45056;47.602;9.886;2022-07-23T03:09:54;93100.53;;;21.57;58.31
59289;BME280;45056;47.602;9.886;2022-07-23T03:12:22;93091.47;;;21.56;58.46
59289;BME280;45056;47.602;9.886;2022-07-23T03:14:50;93086.69;;;21.57;58.39
59289;BME280;45056;47.602;9.886;2022-07-23T03:17:18;93075.38;;;21.55;58.35
59289;BME280;45056;47.602;9.886;2022-07-23T03:19:46;93069.84;;;21.55;58.54
59289;BME280;45056;47.602;9.886;2022-07-23T03:22:14;93068.59;;;21.56;58.44
59289;BME280;45056;47.602;9.886;2022-07-23T03:24:44;93060.03;;;21.54;58.86
59289;BME280;45056;47.602;9.886;2022-07-23T03:27:21;93073.63;;;21.52;58.98
59289;BME280;45056;47.602;9.886;2022-07-23T03:29:49;93064.56;;;21.51;59.21
59289;BME280;45056;47.602;9.886;2022-07-23T03:32:18;93062.81;;;21.48;59.60
59289;BME280;45056;47.602;9.886;2022-07-23T03:34:46;93059.06;;;21.45;59.54
59289;BME280;45056;47.602;9.886;2022-07-23T03:37:14;93061.59;;;21.43;59.62
59289;BME280;45056;47.602;9.886;2022-07-23T03:39:44;93062.59;;;21.40;59.64
59289;BME280;45056;47.602;9.886;2022-07-23T03:42:12;93076.44;;;21.40;59.61
59289;BME280;45056;47.602;9.886;2022-07-23T03:44:40;93096.81;;;21.43;59.65
59289;BME280;45056;47.602;9.886;2022-07-23T03:47:09;93095.56;;;21.44;59.81
59289;BME280;45056;47.602;9.886;2022-07-23T03:49:37;93107.38;;;21.44;60.11
59289;BME280;45056;47.602;9.886;2022-07-23T03:52:05;93114.16;;;21.43;60.43
59289;BME280;45056;47.602;9.886;2022-07-23T03:54:33;93125.28;;;21.38;60.78
59289;BME280;45056;47.602;9.886;2022-07-23T03:57:02;93131.06;;;21.34;60.85
59289;BME280;45056;47.602;9.886;2022-07-23T03:59:31;93124.03;;;21.33;61.00
59289;BME280;45056;47.602;9.886;2022-07-23T04:01:59;93123.50;;;21.34;60.79
59289;BME280;45056;47.602;9.886;2022-07-23T04:04:27;93131.31;;;21.36;61.16
59289;BME280;45056;47.602;9.886;2022-07-23T04:06:55;93133.06;;;21.39;60.91
59289;BME280;45056;47.602;9.886;2022-07-23T04:09:23;93148.63;;;21.42;60.87
59289;BME280;45056;47.602;9.886;2022-07-23T04:11:51;93146.13;;;21.44;61.18
59289;BME280;45056;47.602;9.886;2022-07-23T04:14:20;93148.38;;;21.46;61.45
59289;BME280;45056;47.602;9.886;2022-07-23T04:16:48;93156.16;;;21.47;61.18
59289;BME280;45056;47.602;9.886;2022-07-23T04:19:16;93166.50;;;21.47;61.62
59289;BME280;45056;47.602;9.886;2022-07-23T04:21:44;93153.16;;;21.45;61.85
59289;BME280;45056;47.602;9.886;2022-07-23T04:24:12;93141.59;;;21.41;61.73
59289;BME280;45056;47.602;9.886;2022-07-23T04:26:40;93158.97;;;21.36;61.97
59289;BME280;45056;47.602;9.886;2022-07-23T04:29:08;93198.22;;;21.34;62.07
59289;BME280;45056;47.602;9.886;2022-07-23T04:31:37;93230.16;;;21.36;62.16
59289;BME280;45056;47.602;9.886;2022-07-23T04:34:05;93210.78;;;21.36;62.27
59289;BME280;45056;47.602;9.886;2022-07-23T04:36:33;93201.25;;;21.31;62.09
59289;BME280;45056;47.602;9.886;2022-07-23T04:39:02;93210.56;;;21.28;62.11
59289;BME280;45056;47.602;9.886;2022-07-23T04:41:30;93227.66;;;21.26;61.88
59289;BME280;45056;47.602;9.886;2022-07-23T04:43:58;93211.59;;;21.25;61.72
59289;BME280;45056;47.602;9.886;2022-07-23T04:46:26;93210.31;;;21.20;61.36
59289;BME280;45056;47.602;9.886;2022-07-23T04:48:55;93205.06;;;21.11;61.26
59289;BME280;45056;47.602;9.886;2022-07-23T04:51:23;93202.28;;;21.05;61.18
59289;BME280;45056;47.602;9.886;2022-07-23T04:53:52;93207.81;;;20.99;61.08
59289;BME280;45056;47.602;9.886;2022-07-23T04:56:20;93195.75;;;20.97;61.06
59289;BME280;45056;47.602;9.886;2022-07-23T04:58:48;93196.00;;;20.99;61.09
59289;BME280;45056;47.602;9.886;2022-07-23T05:01:16;93181.41;;;21.04;60.90
59289;BME280;45056;47.602;9.886;2022-07-23T05:03:44;93176.91;;;21.07;60.93
59289;BME280;45056;47.602;9.886;2022-07-23T05:06:16;93173.13;;;21.04;61.38
59289;BME280;45056;47.602;9.886;2022-07-23T05:08:44;93167.81;;;21.00;61.61
59289;BME280;45056;47.602;9.886;2022-07-23T05:11:11;93174.88;;;20.96;61.86
59289;BME280;45056;47.602;9.886;2022-07-23T05:13:39;93169.59;;;20.92;61.97
59289;BME280;45056;47.602;9.886;2022-07-23T05:16:08;93163.81;;;20.96;62.01
59289;BME280;45056;47.602;9.886;2022-07-23T05:18:35;93143.94;;;21.03;61.96
59289;BME280;45056;47.602;9.886;2022-07-23T05:21:04;93144.44;;;21.07;62.20
59289;BME280;45056;47.602;9.886;2022-07-23T05:23:34;93155.00;;;21.09;62.13
59289;BME280;45056;47.602;9.886;2022-07-23T05:26:02;93171.59;;;21.14;61.88
59289;BME280;45056;47.602;9.886;2022-07-23T05:28:30;93189.69;;;21.21;61.90
59289;BME280;45056;47.602;9.886;2022-07-23T05:30:58;93182.38;;;21.29;61.38
59289;BME280;45056;47.602;9.886;2022-07-23T05:33:26;93196.47;;;21.37;60.88
59289;BME280;45056;47.602;9.886;2022-07-23T05:36:00;93210.00;;;21.46;60.82
59289;BME280;45056;47.602;9.886;2022-07-23T05:38:30;93204.47;;;21.58;60.75
59289;BME280;45056;47.602;9.886;2022-07-23T05:41:00;93204.69;;;21.71;60.48
59289;BME280;45056;47.602;9.886;2022-07-23T05:43:29;93217.00;;;21.82;59.99
59289;BME280;45056;47.602;9.886;2022-07-23T05:45:57;93221.00;;;21.86;59.45
59289;BME280;45056;47.602;9.886;2022-07-23T05:48:24;93225.53;;;21.89;59.92
59289;BME280;45056;47.602;9.886;2022-07-23T05:50:52;93236.13;;;21.91;59.77
59289;BME280;45056;47.602;9.886;2022-07-23T05:53:20;93239.63;;;21.91;59.59
59289;BME280;45056;47.602;9.886;2022-07-23T05:55:50;93244.66;;;21.93;59.92
59289;BME280;45056;47.602;9.886;2022-07-23T05:58:18;93248.69;;;21.92;60.14
59289;BME280;45056;47.602;9.886;2022-07-23T06:00:46;93250.69;;;21.91;60.29
59289;BME280;45056;47.602;9.886;2022-07-23T06:03:14;93264.84;;;21.88;60.32
59289;BME280;45056;47.602;9.886;2022-07-23T06:05:42;93276.16;;;21.84;60.37
59289;BME280;45056;47.602;9.886;2022-07-23T06:08:10;93280.69;;;21.82;60.72
59289;BME280;45056;47.602;9.886;2022-07-23T06:10:38;93273.41;;;21.79;60.81
59289;BME280;45056;47.602;9.886;2022-07-23T06:13:07;93283.22;;;21.80;60.19
59289;BME280;45056;47.602;9.886;2022-07-23T06:15:35;93272.13;;;21.80;59.90
59289;BME280;45056;47.602;9.886;2022-07-23T06:18:03;93273.16;;;21.82;59.19
59289;BME280;45056;47.602;9.886;2022-07-23T06:20:31;93266.34;;;21.89;59.12
59289;BME280;45056;47.602;9.886;2022-07-23T06:22:59;93266.78;;;21.99;58.71
59289;BME280;45056;47.602;9.886;2022-07-23T06:25:28;93254.69;;;22.08;57.92
59289;BME280;45056;47.602;9.886;2022-07-23T06:27:56;93265.72;;;22.19;57.64
59289;BME280;45056;47.602;9.886;2022-07-23T06:30:25;93274.78;;;22.25;58.06
59289;BME280;45056;47.602;9.886;2022-07-23T06:32:53;93275.56;;;22.20;58.87
59289;BME280;45056;47.602;9.886;2022-07-23T06:35:21;93279.59;;;22.19;59.17
59289;BME280;45056;47.602;9.886;2022-07-23T06:37:49;93266.47;;;22.19;59.27
59289;BME280;45056;47.602;9.886;2022-07-23T06:40:17;93269.00;;;22.17;59.35
59289;BME280;45056;47.602;9.886;2022-07-23T06:42:45;93273.03;;;22.16;59.13
59289;BME280;45056;47.602;9.886;2022-07-23T06:45:13;93269.25;;;22.14;58.95
59289;BME280;45056;47.602;9.886;2022-07-23T06:47:43;93277.31;;;22.12;58.86
59289;BME280;45056;47.602;9.886;2022-07-23T06:50:11;93282.63;;;22.10;59.04
59289;BME280;45056;47.602;9.886;2022-07-23T06:52:39;93283.88;;;22.09;59.31
59289;BME280;45056;47.602;9.886;2022-07-23T06:55:07;93281.41;;;22.05;59.52
59289;BME280;45056;47.602;9.886;2022-07-23T06:57:35;93280.63;;;21.99;59.98
59289;BME280;45056;47.602;9.886;2022-07-23T07:00:05;93276.88;;;21.96;60.41
59289;BME280;45056;47.602;9.886;2022-07-23T07:02:33;93271.34;;;21.96;60.58
59289;BME280;45056;47.602;9.886;2022-07-23T07:05:03;93278.41;;;21.97;60.80
59289;BME280;45056;47.602;9.886;2022-07-23T07:07:32;93263.28;;;21.98;61.31
59289;BME280;45056;47.602;9.886;2022-07-23T07:10:00;93257.75;;;21.98;61.44
59289;BME280;45056;47.602;9.886;2022-07-23T07:12:28;93268.56;;;21.96;61.43
59289;BME280;45056;47.602;9.886;2022-07-23T07:14:56;93256.97;;;21.98;61.57
59289;BME280;45056;47.602;9.886;2022-07-23T07:17:25;93251.44;;;21.98;61.53
59289;BME280;45056;47.602;9.886;2022-07-23T07:19:53;93261.78;;;21.97;61.70
59289;BME280;45056;47.602;9.886;2022-07-23T07:22:23;93259.75;;;21.98;61.47
59289;BME280;45056;47.602;9.886;2022-07-23T07:24:50;93282.66;;;21.98;61.17
59289;BME280;45056;47.602;9.886;2022-07-23T07:27:19;93288.22;;;21.98;61.20
59289;BME280;45056;47.602;9.886;2022-07-23T07:29:47;93294.00;;;22.00;61.31
59289;BME280;45056;47.602;9.886;2022-07-23T07:32:15;93299.00;;;22.08;61.23
59289;BME280;45056;47.602;9.886;2022-07-23T07:34:43;93298.22;;;22.13;61.05
59289;BME280;45056;47.602;9.886;2022-07-23T07:37:11;93308.03;;;22.14;60.81
59289;BME280;45056;47.602;9.886;2022-07-23T07:39:41;93320.16;;;22.16;61.01
59289;BME280;45056;47.602;9.886;2022-07-23T07:42:09;93322.38;;;22.24;61.13
59289;BME280;45056;47.602;9.886;2022-07-23T07:44:37;93323.13;;;22.30;60.87
59289;BME280;45056;47.602;9.886;2022-07-23T07:47:05;93321.59;;;22.34;60.63
59289;BME280;45056;47.602;9.886;2022-07-23T07:49:34;93327.63;;;22.39;60.43
59289;BME280;45056;47.602;9.886;2022-07-23T07:52:03;93322.31;;;22.41;59.72
59289;BME280;45056;47.602;9.886;2022-07-23T07:54:32;93321.34;;;22.38;59.42
59289;BME280;45056;47.602;9.886;2022-07-23T07:57:02;93328.16;;;22.37;59.30
59289;BME280;45056;47.602;9.886;2022-07-23T07:59:30;93327.38;;;22.37;58.96
59289;BME280;45056;47.602;9.886;2022-07-23T08:01:58;93327.13;;;22.34;58.63
59289;BME280;45056;47.602;9.886;2022-07-23T08:04:26;93329.91;;;22.34;58.78
59289;BME280;45056;47.602;9.886;2022-07-23T08:06:54;93331.69;;;22.32;59.06
59289;BME280;45056;47.602;9.886;2022-07-23T08:09:22;93328.16;;;22.31;59.29
59289;BME280;45056;47.602;9.886;2022-07-23T08:11:50;93337.72;;;22.30;59.28
59289;BME280;45056;47.602;9.886;2022-07-23T08:14:20;93335.47;;;22.29;59.69
59289;BME280;45056;47.602;9.886;2022-07-23T08:16:48;93344.03;;;22.31;59.96
59289;BME280;45056;47.602;9.886;2022-07-23T08:19:16;93336.22;;;22.29;60.02
59289;BME280;45056;47.602;9.886;2022-07-23T08:21:44;93347.31;;;22.29;60.10
59289;BME280;45056;47.602;9.886;2022-07-23T08:24:12;93340.25;;;22.28;60.19
59289;BME280;45056;47.602;9.886;2022-07-23T08:26:41;93343.28;;;22.25;60.24
59289;BME280;45056;47.602;9.886;2022-07-23T08:29:10;93351.63;;;22.19;60.22
59289;BME280;45056;47.602;9.886;2022-07-23T08:31:39;93352.38;;;22.14;60.38
59289;BME280;45056;47.602;9.886;2022-07-23T08:34:07;93346.59;;;22.12;60.58
59289;BME280;45056;47.602;9.886;2022-07-23T08:36:35;93332.97;;;22.14;60.93
59289;BME280;45056;47.602;9.886;2022-07-23T08:39:04;93347.59;;;22.14;61.03
59289;BME280;45056;47.602;9.886;2022-07-23T08:41:34;93347.84;;;22.16;61.47
59289;BME280;45056;47.602;9.886;2022-07-23T08:44:02;93354.91;;;22.17;61.55
59289;BME280;45056;47.602;9.886;2022-07-23T08:46:31;93350.63;;;22.16;61.71
59289;BME280;45056;47.602;9.886;2022-07-23T08:49:01;93358.44;;;22.18;61.59
59289;BME280;45056;47.602;9.886;2022-07-23T08:51:30;93353.38;;;22.22;61.79
59289;BME280;45056;47.602;9.886;2022-07-23T08:53:58;93358.94;;;22.22;61.71
59289;BME280;45056;47.602;9.886;2022-07-23T08:56:26;93370.75;;;22.23;61.47
59289;BME280;45056;47.602;9.886;2022-07-23T08:58:55;93365.97;;;22.23;61.29
59289;BME280;45056;47.602;9.886;2022-07-23T09:01:23;93364.47;;;22.22;61.22
59289;BME280;45056;47.602;9.886;2022-07-23T09:03:51;93367.25;;;22.22;61.25
59289;BME280;45056;47.602;9.886;2022-07-23T09:06:20;93367.97;;;22.23;61.13
59289;BME280;45056;47.602;9.886;2022-07-23T09:08:48;93364.47;;;22.22;61.31
59289;BME280;45056;47.602;9.886;2022-07-23T09:11:17;93354.13;;;22.23;61.25
59289;BME280;45056;47.602;9.886;2022-07-23T09:13:47;93346.34;;;22.21;61.17
59289;BME280;45056;47.602;9.886;2022-07-23T09:16:18;93354.91;;;22.23;61.10
59289;BME280;45056;47.602;9.886;2022-07-23T09:18:51;93340.78;;;22.21;61.29
59289;BME280;45056;47.602;9.886;2022-07-23T09:21:26;93338.03;;;22.21;61.38
59289;BME280;45056;47.602;9.886;2022-07-23T09:23:58;93341.81;;;22.18;61.57
59289;BME280;45056;47.602;9.886;2022-07-23T09:26:36;93328.94;;;22.15;61.62
59289;BME280;45056;47.602;9.886;2022-07-23T09:29:08;93337.03;;;22.13;62.02
59289;BME280;45056;47.602;9.886;2022-07-23T09:31:47;93332.97;;;22.14;62.29
59289;BME280;45056;47.602;9.886;2022-07-23T09:34:20;93341.28;;;22.19;62.21
59289;BME280;45056;47.602;9.886;2022-07-23T09:36:53;93333.47;;;22.24;62.30
59289;BME280;45056;47.602;9.886;2022-07-23T09:39:27;93326.91;;;22.27;62.21
59289;BME280;45056;47.602;9.886;2022-07-23T09:41:57;93333.94;;;22.28;61.71
59289;BME280;45056;47.602;9.886;2022-07-23T09:44:42;93341.00;;;22.29;61.06
59289;BME280;45056;47.602;9.886;2022-07-23T09:47:11;93342.00;;;22.31;60.73
59289;BME280;45056;47.602;9.886;2022-07-23T09:49:40;93332.97;;;22.31;60.76
59289;BME280;45056;47.602;9.886;2022-07-23T09:52:29;93340.25;;;22.34;60.45
59289;BME280;45056;47.602;9.886;2022-07-23T09:55:00;93346.53;;;22.34;60.07
59289;BME280;45056;47.602;9.886;2022-07-23T09:57:31;93336.22;;;22.35;59.71
59289;BME280;45056;47.602;9.886;2022-07-23T10:00:03;93334.19;;;22.36;59.56
59289;BME280;45056;47.602;9.886;2022-07-23T10:02:33;93330.16;;;22.37;59.23
59289;BME280;45056;47.602;9.886;2022-07-23T10:05:03;93339.47;;;22.39;59.46
59289;BME280;45056;47.602;9.886;2022-07-23T10:07:37;93340.97;;;22.40;59.46
59289;BME280;45056;47.602;9.886;2022-07-23T10:10:07;93339.72;;;22.41;59.78
59289;BME280;45056;47.602;9.886;2022-07-23T10:12:37;93342.22;;;22.45;59.92
59289;BME280;45056;47.602;9.886;2022-07-23T10:15:23;93339.72;;;22.47;60.06
59289;BME280;45056;47.602;9.886;2022-07-23T10:17:52;93349.03;;;22.50;59.73
59289;BME280;45056;47.602;9.886;2022-07-23T10:20:20;93343.72;;;22.52;60.47
59289;BME280;45056;47.602;9.886;2022-07-23T10:23:02;93356.09;;;22.51;60.90
59289;BME280;45056;47.602;9.886;2022-07-23T10:25:44;93355.34;;;22.50;60.29
59289;BME280;45056;47.602;9.886;2022-07-23T10:31:41;93351.06;;;22.49;59.83
59289;BME280;45056;47.602;9.886;2022-07-23T10:34:24;93352.06;;;22.46;60.11
59289;BME280;45056;47.602;9.886;2022-07-23T10:37:07;93344.75;;;22.43;60.03
59289;BME280;45056;47.602;9.886;2022-07-23T10:39:45;93338.72;;;22.39;59.73
59289;BME280;45056;47.602;9.886;2022-07-23T10:42:15;93336.97;;;22.36;59.83
59289;BME280;45056;47.602;9.886;2022-07-23T10:44:46;93336.72;;;22.33;60.04
59289;BME280;45056;47.602;9.886;2022-07-23T10:47:27;93340.50;;;22.30;60.04
59289;BME280;45056;47.602;9.886;2022-07-23T10:50:20;93318.34;;;22.25;60.06
59289;BME280;45056;47.602;9.886;2022-07-23T10:53:17;93329.97;;;22.23;60.06
59289;BME280;45056;47.602;9.886;2022-07-23T10:55:51;93329.72;;;22.21;59.81
59289;BME280;45056;47.602;9.886;2022-07-23T10:58:47;93327.19;;;22.17;59.55
59289;BME280;45056;47.602;9.886;2022-07-23T11:01:33;93334.50;;;22.15;59.44
59289;BME280;45056;47.602;9.886;2022-07-23T11:04:03;93335.75;;;22.14;59.59
59289;BME280;45056;47.602;9.886;2022-07-23T11:07:07;93338.28;;;22.12;59.65
59289;BME280;45056;47.602;9.886;2022-07-23T11:09:40;93321.41;;;22.10;59.69
59289;BME280;45056;47.602;9.886;2022-07-23T11:12:36;93334.78;;;22.11;59.46
59289;BME280;45056;47.602;9.886;2022-07-23T11:15:07;93331.47;;;22.13;59.60
59289;BME280;45056;47.602;9.886;2022-07-23T11:17:40;93327.44;;;22.14;59.96
59289;BME280;45056;47.602;9.886;2022-07-23T11:20:27;93322.66;;;22.14;60.00
59289;BME280;45056;47.602;9.886;2022-07-23T11:22:56;93329.97;;;22.17;59.90
59289;BME280;45056;47.602;9.886;2022-07-23T11:25:32;93330.22;;;22.19;60.23
59289;BME280;45056;47.602;9.886;2022-07-23T11:28:14;93324.16;;;22.21;59.59
59289;BME280;45056;47.602;9.886;2022-07-23T11:30:45;93330.44;;;22.22;59.28
59289;BME280;45056;47.602;9.886;2022-07-23T11:33:21;93325.69;;;22.22;58.84
59289;BME280;45056;47.602;9.886;2022-07-23T11:36:00;93330.44;;;22.22;58.69
59289;BME280;45056;47.602;9.886;2022-07-23T11:38:31;93333.75;;;22.20;58.83
59289;BME280;45056;47.602;9.886;2022-07-23T11:41:00;93328.47;;;22.16;58.80
59289;BME280;45056;47.602;9.886;2022-07-23T11:43:30;93334.75;;;22.17;58.96
59289;BME280;45056;47.602;9.886;2022-07-23T11:45:59;93331.22;;;22.16;59.01
59289;BME280;45056;47.602;9.886;2022-07-23T11:48:29;93333.50;;;22.18;59.32
59289;BME280;45056;47.602;9.886;2022-07-23T11:50:59;93335.00;;;22.19;59.33
59289;BME280;45056;47.602;9.886;2022-07-23T11:53:28;93340.56;;;22.19;59.73
59289;BME280;45056;47.602;9.886;2022-07-23T11:56:04;93337.78;;;22.19;59.83
59289;BME280;45056;47.602;9.886;2022-07-23T11:58:34;93326.69;;;22.19;59.47
59289;BME280;45056;47.602;9.886;2022-07-23T12:01:03;93325.94;;;22.18;59.54
59289;BME280;45056;47.602;9.886;2022-07-23T12:03:32;93329.47;;;22.19;59.38
59289;BME280;45056;47.602;9.886;2022-07-23T12:06:00;93321.41;;;22.21;59.37
59289;BME280;45056;47.602;9.886;2022-07-23T12:08:29;93328.94;;;22.20;59.17
59289;BME280;45056;47.602;9.886;2022-07-23T12:10:57;93324.16;;;22.21;59.16
59289;BME280;45056;47.602;9.886;2022-07-23T12:13:25;93320.88;;;22.23;59.42
59289;BME280;45056;47.602;9.886;2022-07-23T12:15:56;93325.69;;;22.22;59.43
59289;BME280;45056;47.602;9.886;2022-07-23T12:18:27;93315.56;;;22.25;59.54
59289;BME280;45056;47.602;9.886;2022-07-23T12:20:57;93321.88;;;22.25;59.73
59289;BME280;45056;47.602;9.886;2022-07-23T12:23:31;93324.41;;;22.23;59.51
59289;BME280;45056;47.602;9.886;2022-07-23T12:26:01;93317.84;;;22.20;59.32
59289;BME280;45056;47.602;9.886;2022-07-23T12:28:31;93313.59;;;22.19;59.33
59289;BME280;45056;47.602;9.886;2022-07-23T12:31:03;93301.75;;;22.19;59.53
59289;BME280;45056;47.602;9.886;2022-07-23T12:33:33;93297.72;;;22.20;59.37
59289;BME280;45056;47.602;9.886;2022-07-23T12:36:05;93301.22;;;22.20;59.37
59289;BME280;45056;47.602;9.886;2022-07-23T12:38:38;93311.06;;;22.22;59.26
59289;BME280;45056;47.602;9.886;2022-07-23T12:41:10;93301.47;;;22.23;59.05
59289;BME280;45056;47.602;9.886;2022-07-23T12:43:40;93297.44;;;22.24;58.80
59289;BME280;45056;47.602;9.886;2022-07-23T12:46:16;93300.22;;;22.24;58.91
59289;BME280;45056;47.602;9.886;2022-07-23T12:48:52;93304.72;;;22.27;59.16
59289;BME280;45056;47.602;9.886;2022-07-23T12:51:23;93305.97;;;22.31;59.04
59289;BME280;45056;47.602;9.886;2022-07-23T12:53:54;93310.75;;;22.37;59.16
59289;BME280;45056;47.602;9.886;2022-07-23T12:56:28;93311.47;;;22.43;58.78
59289;BME280;45056;47.602;9.886;2022-07-23T12:58:59;93316.53;;;22.50;58.52
59289;BME280;45056;47.602;9.886;2022-07-23T13:01:35;93307.91;;;22.59;58.27
59289;BME280;45056;47.602;9.886;2022-07-23T13:04:06;93306.34;;;22.70;57.89
59289;BME280;45056;47.602;9.886;2022-07-23T13:06:38;93308.53;;;22.83;57.57
59289;BME280;45056;47.602;9.886;2022-07-23T13:09:10;93305.97;;;22.90;57.36
59289;BME280;45056;47.602;9.886;2022-07-23T13:11:40;93308.91;;;23.04;57.24
59289;BME280;45056;47.602;9.886;2022-07-23T13:14:08;93312.91;;;23.14;56.86
59289;BME280;45056;47.602;9.886;2022-07-23T13:16:39;93312.09;;;23.25;56.88
59289;BME280;45056;47.602;9.886;2022-07-23T13:19:08;93304.72;;;23.33;56.38